Pine City, MN

7:13 AM CDT on August 21, 2014 (GMT -0500)
Rush City Regional | Change Station
CLOSE
Current Station
Airport
Location: Rush City,
Elevation: 922 ft
Nearby Weather Stations

Elev 922 ft 45.70 °N, 92.95 °W | Updated 19 minutes ago

Light Thunderstorms and Rain
Light Thunderstorm Rain
65 °F
Feels Like 65 °F
N
0
Wind Variable Wind from North

Today
High -- | Low -- °F
--% Chance of Precip.
Yesterday
High -- | Low -- °F
Precip. -- in
6:19 AM 8:09 PM
Waning Crescent, 14% visible
Pressure 29.89 in
Visibility 5.0 miles
Clouds Mostly Cloudy 1500 ft
Mostly Cloudy 2900 ft
Overcast 5500 ft
Dew Point 63 °F
Humidity 93%
Rainfall 0.23 in
Snow Depth Not available.
UV 0 out of 12
Pollen 3.90 out of 12
Air Quality Not available.
Flu Activity Not available.
METAR KROS 211154Z AUTO 00000KT 5SM -VCTSRA BKN015 BKN029 OVC055 18/17 A2989 RMK AO2 LTG DSNT ALQS P0022 60022 70022 T01840172 10190 20180

More Conditions Fewer Conditions

Pressure 29.89 in
Visibility 5.0 miles
Clouds Mostly Cloudy 1500 ft
Mostly Cloudy 2900 ft
Overcast 5500 ft
Dew Point 63 °F
Humidity 93%
Rainfall 0.23 in
Snow Depth Not available.
UV 0 out of 12
Pollen 3.90 out of 12
Air Quality Not available.
Flu Activity Not available.
METAR KROS 211154Z AUTO 00000KT 5SM -VCTSRA BKN015 BKN029 OVC055 18/17 A2989 RMK AO2 LTG DSNT ALQS P0022 60022 70022 T01840172 10190 20180

More Conditions Fewer Conditions

10-Day Weather Forecast

Almanac

Astronomy

Aug. 21, 2014 Rise Set
Actual Time 6:19 AM CDT 8:09 PM CDT
Civil Twilight 5:47 AM CDT 8:41 PM CDT
Nautical Twilight 5:08 AM CDT 9:20 PM CDT
Astronomical Twilight 4:25 AM CDT 10:02 PM CDT
Moon 2:44 AM CDT 5:43 PM CDT
Length of Visible Light 14h 54m
Length of Day
13h 50m
Tomorrow will be 2m 59s shorter.
Waning Crescent, 14% of the Moon is Illuminated
Today
Waning Crescent
Aug 25
New
Sep 2
First Quarter
Sep 8
Full
Sep 15
Last Quarter

Today's Extremes

State Highs State Lows

Community

WunderPhotos

Upload Photos

1,745,885 photos uploaded!

Nearby

Snow Depth

Station Depth Elevation
No new snow has been reported.

Earthquake Activity

City Distance Mag. Time & Date
No recent earthquake activity has been reported nearby.
Minimum magnitude displayed is 2.5.

Coastal Water Temperatures

Place Temperature
No Stations Reporting

Nearby Weather Stations